sensor_id;sensor_type;location;lat;lon;timestamp;P1;durP1;ratioP1;P2;durP2;ratioP2
20621;SDS011;10470;42.670;23.354;2022-08-19T00:01:27;6.20;;;5.60;;
20621;SDS011;10470;42.670;23.354;2022-08-19T00:03:54;7.83;;;5.87;;
20621;SDS011;10470;42.670;23.354;2022-08-19T00:06:24;6.40;;;5.30;;
20621;SDS011;10470;42.670;23.354;2022-08-19T00:08:51;7.23;;;5.50;;
20621;SDS011;10470;42.670;23.354;2022-08-19T00:11:16;6.40;;;5.63;;
20621;SDS011;10470;42.670;23.354;2022-08-19T00:13:42;6.33;;;5.70;;
20621;SDS011;10470;42.670;23.354;2022-08-19T00:16:08;6.50;;;5.90;;
20621;SDS011;10470;42.670;23.354;2022-08-19T00:18:33;5.90;;;5.40;;
20621;SDS011;10470;42.670;23.354;2022-08-19T00:20:59;7.67;;;5.70;;
20621;SDS011;10470;42.670;23.354;2022-08-19T00:23:25;6.67;;;5.97;;
20621;SDS011;10470;42.670;23.354;2022-08-19T00:25:52;6.17;;;5.57;;
20621;SDS011;10470;42.670;23.354;2022-08-19T00:28:18;7.80;;;5.60;;
20621;SDS011;10470;42.670;23.354;2022-08-19T00:30:45;6.50;;;5.87;;
20621;SDS011;10470;42.670;23.354;2022-08-19T00:33:11;6.90;;;5.60;;
20621;SDS011;10470;42.670;23.354;2022-08-19T00:35:36;5.73;;;5.13;;
20621;SDS011;10470;42.670;23.354;2022-08-19T00:38:03;6.50;;;5.80;;
20621;SDS011;10470;42.670;23.354;2022-08-19T00:40:30;6.50;;;5.47;;
20621;SDS011;10470;42.670;23.354;2022-08-19T00:42:56;6.53;;;5.30;;
20621;SDS011;10470;42.670;23.354;2022-08-19T00:45:22;6.00;;;5.40;;
20621;SDS011;10470;42.670;23.354;2022-08-19T00:47:51;6.67;;;5.60;;
20621;SDS011;10470;42.670;23.354;2022-08-19T00:50:18;6.87;;;6.00;;
20621;SDS011;10470;42.670;23.354;2022-08-19T00:52:47;8.10;;;6.10;;
20621;SDS011;10470;42.670;23.354;2022-08-19T00:55:16;6.47;;;5.93;;
20621;SDS011;10470;42.670;23.354;2022-08-19T00:57:46;7.03;;;5.97;;
20621;SDS011;10470;42.670;23.354;2022-08-19T01:00:17;6.83;;;6.13;;
20621;SDS011;10470;42.670;23.354;2022-08-19T01:02:44;6.90;;;6.20;;
20621;SDS011;10470;42.670;23.354;2022-08-19T01:05:16;8.13;;;6.30;;
20621;SDS011;10470;42.670;23.354;2022-08-19T01:07:46;6.87;;;6.17;;
20621;SDS011;10470;42.670;23.354;2022-08-19T01:10:15;8.70;;;6.10;;
20621;SDS011;10470;42.670;23.354;2022-08-19T01:12:44;8.57;;;6.33;;
20621;SDS011;10470;42.670;23.354;2022-08-19T01:15:12;6.57;;;5.97;;
20621;SDS011;10470;42.670;23.354;2022-08-19T01:17:40;8.27;;;6.43;;
20621;SDS011;10470;42.670;23.354;2022-08-19T01:20:11;6.77;;;6.07;;
20621;SDS011;10470;42.670;23.354;2022-08-19T01:22:50;8.00;;;6.80;;
20621;SDS011;10470;42.670;23.354;2022-08-19T01:25:20;7.47;;;6.67;;
20621;SDS011;10470;42.670;23.354;2022-08-19T01:27:52;8.40;;;6.40;;
20621;SDS011;10470;42.670;23.354;2022-08-19T01:30:24;9.30;;;6.93;;
20621;SDS011;10470;42.670;23.354;2022-08-19T01:32:52;10.43;;;6.83;;
20621;SDS011;10470;42.670;23.354;2022-08-19T01:35:19;7.63;;;6.83;;
20621;SDS011;10470;42.670;23.354;2022-08-19T01:37:53;7.20;;;6.50;;
20621;SDS011;10470;42.670;23.354;2022-08-19T01:40:22;7.47;;;6.67;;
20621;SDS011;10470;42.670;23.354;2022-08-19T01:42:51;7.33;;;6.63;;
20621;SDS011;10470;42.670;23.354;2022-08-19T01:45:18;7.57;;;6.60;;
20621;SDS011;10470;42.670;23.354;2022-08-19T01:47:45;7.60;;;6.80;;
20621;SDS011;10470;42.670;23.354;2022-08-19T01:50:11;8.13;;;6.43;;
20621;SDS011;10470;42.670;23.354;2022-08-19T01:52:38;7.27;;;6.17;;
20621;SDS011;10470;42.670;23.354;2022-08-19T01:55:07;7.50;;;6.77;;
20621;SDS011;10470;42.670;23.354;2022-08-19T01:57:36;9.23;;;6.97;;
20621;SDS011;10470;42.670;23.354;2022-08-19T02:00:07;7.87;;;6.10;;
20621;SDS011;10470;42.670;23.354;2022-08-19T02:02:37;7.10;;;6.40;;
20621;SDS011;10470;42.670;23.354;2022-08-19T02:05:03;7.13;;;6.43;;
20621;SDS011;10470;42.670;23.354;2022-08-19T02:07:29;7.67;;;6.77;;
20621;SDS011;10470;42.670;23.354;2022-08-19T02:09:55;7.43;;;6.63;;
20621;SDS011;10470;42.670;23.354;2022-08-19T02:12:20;7.93;;;7.10;;
20621;SDS011;10470;42.670;23.354;2022-08-19T02:14:47;10.23;;;7.17;;
20621;SDS011;10470;42.670;23.354;2022-08-19T02:17:13;7.40;;;6.60;;
20621;SDS011;10470;42.670;23.354;2022-08-19T02:19:38;7.20;;;6.50;;
20621;SDS011;10470;42.670;23.354;2022-08-19T02:22:04;7.60;;;6.50;;
20621;SDS011;10470;42.670;23.354;2022-08-19T02:24:30;9.63;;;6.80;;
20621;SDS011;10470;42.670;23.354;2022-08-19T02:26:56;8.47;;;6.67;;
20621;SDS011;10470;42.670;23.354;2022-08-19T02:29:22;7.33;;;6.57;;
20621;SDS011;10470;42.670;23.354;2022-08-19T02:31:47;7.30;;;6.60;;
20621;SDS011;10470;42.670;23.354;2022-08-19T02:34:13;7.17;;;6.47;;
20621;SDS011;10470;42.670;23.354;2022-08-19T02:36:39;8.53;;;6.47;;
20621;SDS011;10470;42.670;23.354;2022-08-19T02:39:04;8.13;;;6.80;;
20621;SDS011;10470;42.670;23.354;2022-08-19T02:41:30;9.20;;;6.80;;
20621;SDS011;10470;42.670;23.354;2022-08-19T02:43:58;7.50;;;6.67;;
20621;SDS011;10470;42.670;23.354;2022-08-19T02:46:26;7.70;;;6.67;;
20621;SDS011;10470;42.670;23.354;2022-08-19T02:48:56;8.13;;;6.83;;
20621;SDS011;10470;42.670;23.354;2022-08-19T02:51:25;9.03;;;6.93;;
20621;SDS011;10470;42.670;23.354;2022-08-19T02:53:53;7.50;;;6.80;;
20621;SDS011;10470;42.670;23.354;2022-08-19T02:56:19;10.57;;;6.73;;
20621;SDS011;10470;42.670;23.354;2022-08-19T02:58:45;9.10;;;7.33;;
20621;SDS011;10470;42.670;23.354;2022-08-19T03:01:19;7.73;;;6.90;;
20621;SDS011;10470;42.670;23.354;2022-08-19T03:03:56;9.83;;;7.30;;
20621;SDS011;10470;42.670;23.354;2022-08-19T03:06:23;8.90;;;7.07;;
20621;SDS011;10470;42.670;23.354;2022-08-19T03:08:50;8.57;;;7.27;;
20621;SDS011;10470;42.670;23.354;2022-08-19T03:11:17;10.60;;;7.13;;
20621;SDS011;10470;42.670;23.354;2022-08-19T03:13:43;8.63;;;7.60;;
20621;SDS011;10470;42.670;23.354;2022-08-19T03:16:09;8.37;;;7.30;;
20621;SDS011;10470;42.670;23.354;2022-08-19T03:18:36;10.07;;;7.80;;
20621;SDS011;10470;42.670;23.354;2022-08-19T03:21:01;9.27;;;7.90;;
20621;SDS011;10470;42.670;23.354;2022-08-19T03:23:27;8.70;;;7.47;;
20621;SDS011;10470;42.670;23.354;2022-08-19T03:25:53;8.20;;;7.33;;
20621;SDS011;10470;42.670;23.354;2022-08-19T03:28:19;8.33;;;7.23;;
20621;SDS011;10470;42.670;23.354;2022-08-19T03:31:02;9.20;;;7.50;;
20621;SDS011;10470;42.670;23.354;2022-08-19T03:33:30;8.77;;;7.40;;
20621;SDS011;10470;42.670;23.354;2022-08-19T03:36:29;10.00;;;7.70;;
20621;SDS011;10470;42.670;23.354;2022-08-19T03:38:50;8.60;;;7.70;;
20621;SDS011;10470;42.670;23.354;2022-08-19T03:41:23;8.33;;;7.50;;
20621;SDS011;10470;42.670;23.354;2022-08-19T03:43:51;9.10;;;7.17;;
20621;SDS011;10470;42.670;23.354;2022-08-19T03:46:20;9.37;;;7.20;;
20621;SDS011;10470;42.670;23.354;2022-08-19T03:48:49;9.87;;;7.30;;
20621;SDS011;10470;42.670;23.354;2022-08-19T03:51:20;11.73;;;7.47;;
20621;SDS011;10470;42.670;23.354;2022-08-19T03:53:48;9.10;;;7.87;;
20621;SDS011;10470;42.670;23.354;2022-08-19T03:56:14;9.40;;;7.63;;
20621;SDS011;10470;42.670;23.354;2022-08-19T03:58:40;8.70;;;7.70;;
20621;SDS011;10470;42.670;23.354;2022-08-19T04:01:10;9.80;;;7.60;;
20621;SDS011;10470;42.670;23.354;2022-08-19T04:03:37;10.33;;;8.10;;
20621;SDS011;10470;42.670;23.354;2022-08-19T04:06:17;9.50;;;7.80;;
20621;SDS011;10470;42.670;23.354;2022-08-19T04:08:46;10.07;;;7.30;;
20621;SDS011;10470;42.670;23.354;2022-08-19T04:11:15;9.00;;;7.60;;
20621;SDS011;10470;42.670;23.354;2022-08-19T04:13:42;9.03;;;7.73;;
20621;SDS011;10470;42.670;23.354;2022-08-19T04:16:09;10.10;;;7.60;;
20621;SDS011;10470;42.670;23.354;2022-08-19T04:18:36;10.20;;;7.53;;
20621;SDS011;10470;42.670;23.354;2022-08-19T04:21:03;10.80;;;7.90;;
20621;SDS011;10470;42.670;23.354;2022-08-19T04:23:30;9.50;;;7.57;;
20621;SDS011;10470;42.670;23.354;2022-08-19T04:25:56;9.20;;;7.67;;
20621;SDS011;10470;42.670;23.354;2022-08-19T04:28:22;8.87;;;7.63;;
20621;SDS011;10470;42.670;23.354;2022-08-19T04:30:50;8.50;;;7.60;;
20621;SDS011;10470;42.670;23.354;2022-08-19T04:33:18;10.90;;;8.90;;
20621;SDS011;10470;42.670;23.354;2022-08-19T04:35:47;11.33;;;8.23;;
20621;SDS011;10470;42.670;23.354;2022-08-19T04:38:14;10.00;;;8.03;;
20621;SDS011;10470;42.670;23.354;2022-08-19T04:40:41;12.50;;;8.20;;
20621;SDS011;10470;42.670;23.354;2022-08-19T04:43:31;10.70;;;8.67;;
20621;SDS011;10470;42.670;23.354;2022-08-19T04:45:57;10.27;;;7.90;;
20621;SDS011;10470;42.670;23.354;2022-08-19T04:48:23;10.63;;;8.20;;
20621;SDS011;10470;42.670;23.354;2022-08-19T04:50:55;10.17;;;7.87;;
20621;SDS011;10470;42.670;23.354;2022-08-19T04:53:26;11.63;;;7.87;;
20621;SDS011;10470;42.670;23.354;2022-08-19T04:55:54;10.93;;;8.63;;
20621;SDS011;10470;42.670;23.354;2022-08-19T04:58:20;12.60;;;8.00;;
20621;SDS011;10470;42.670;23.354;2022-08-19T05:00:45;12.47;;;9.00;;
20621;SDS011;10470;42.670;23.354;2022-08-19T05:03:11;9.43;;;8.43;;
20621;SDS011;10470;42.670;23.354;2022-08-19T05:05:43;9.50;;;8.37;;
20621;SDS011;10470;42.670;23.354;2022-08-19T05:08:11;9.60;;;8.03;;
20621;SDS011;10470;42.670;23.354;2022-08-19T05:10:38;9.40;;;7.40;;
20621;SDS011;10470;42.670;23.354;2022-08-19T05:13:04;9.30;;;7.20;;
20621;SDS011;10470;42.670;23.354;2022-08-19T05:15:30;8.80;;;7.87;;
20621;SDS011;10470;42.670;23.354;2022-08-19T05:17:56;8.50;;;7.60;;
20621;SDS011;10470;42.670;23.354;2022-08-19T05:20:40;9.80;;;7.20;;
20621;SDS011;10470;42.670;23.354;2022-08-19T05:23:24;7.47;;;6.77;;
20621;SDS011;10470;42.670;23.354;2022-08-19T05:25:51;7.37;;;6.60;;
20621;SDS011;10470;42.670;23.354;2022-08-19T05:28:17;8.60;;;7.70;;
20621;SDS011;10470;42.670;23.354;2022-08-19T05:30:44;10.17;;;8.37;;
20621;SDS011;10470;42.670;23.354;2022-08-19T05:33:11;9.57;;;7.57;;
20621;SDS011;10470;42.670;23.354;2022-08-19T05:35:40;8.93;;;7.03;;
20621;SDS011;10470;42.670;23.354;2022-08-19T05:38:06;9.73;;;8.47;;
20621;SDS011;10470;42.670;23.354;2022-08-19T05:40:36;13.30;;;10.93;;
20621;SDS011;10470;42.670;23.354;2022-08-19T05:43:04;9.53;;;8.53;;
20621;SDS011;10470;42.670;23.354;2022-08-19T05:45:31;11.20;;;8.63;;
20621;SDS011;10470;42.670;23.354;2022-08-19T05:47:57;7.90;;;7.10;;
20621;SDS011;10470;42.670;23.354;2022-08-19T05:50:23;10.50;;;7.70;;
20621;SDS011;10470;42.670;23.354;2022-08-19T05:52:51;12.07;;;8.83;;
20621;SDS011;10470;42.670;23.354;2022-08-19T05:55:17;13.07;;;8.43;;
20621;SDS011;10470;42.670;23.354;2022-08-19T05:57:45;10.17;;;7.60;;
20621;SDS011;10470;42.670;23.354;2022-08-19T06:00:12;10.37;;;7.70;;
20621;SDS011;10470;42.670;23.354;2022-08-19T06:02:38;9.50;;;8.50;;
20621;SDS011;10470;42.670;23.354;2022-08-19T06:05:04;9.67;;;7.93;;
20621;SDS011;10470;42.670;23.354;2022-08-19T06:07:33;9.03;;;7.90;;
20621;SDS011;10470;42.670;23.354;2022-08-19T06:10:04;9.70;;;7.40;;
20621;SDS011;10470;42.670;23.354;2022-08-19T06:12:31;10.57;;;7.40;;
20621;SDS011;10470;42.670;23.354;2022-08-19T06:15:09;9.83;;;8.20;;
20621;SDS011;10470;42.670;23.354;2022-08-19T06:17:37;9.50;;;7.93;;
20621;SDS011;10470;42.670;23.354;2022-08-19T06:20:04;9.53;;;7.67;;
20621;SDS011;10470;42.670;23.354;2022-08-19T06:22:36;9.13;;;7.70;;
20621;SDS011;10470;42.670;23.354;2022-08-19T06:25:03;8.77;;;7.33;;
20621;SDS011;10470;42.670;23.354;2022-08-19T06:27:29;9.90;;;7.53;;
20621;SDS011;10470;42.670;23.354;2022-08-19T06:29:56;8.57;;;7.27;;
20621;SDS011;10470;42.670;23.354;2022-08-19T06:32:21;11.07;;;7.60;;
20621;SDS011;10470;42.670;23.354;2022-08-19T06:34:47;8.17;;;7.07;;
20621;SDS011;10470;42.670;23.354;2022-08-19T06:37:12;7.57;;;6.83;;
20621;SDS011;10470;42.670;23.354;2022-08-19T06:39:39;10.73;;;7.17;;
20621;SDS011;10470;42.670;23.354;2022-08-19T06:42:06;9.03;;;7.17;;
20621;SDS011;10470;42.670;23.354;2022-08-19T06:44:34;11.20;;;7.07;;
20621;SDS011;10470;42.670;23.354;2022-08-19T06:47:05;10.17;;;7.60;;
20621;SDS011;10470;42.670;23.354;2022-08-19T06:49:32;13.20;;;7.30;;
20621;SDS011;10470;42.670;23.354;2022-08-19T06:51:59;9.40;;;7.20;;
20621;SDS011;10470;42.670;23.354;2022-08-19T06:54:25;9.37;;;7.97;;
20621;SDS011;10470;42.670;23.354;2022-08-19T06:56:53;12.37;;;7.67;;
20621;SDS011;10470;42.670;23.354;2022-08-19T06:59:21;9.57;;;6.97;;
20621;SDS011;10470;42.670;23.354;2022-08-19T07:01:52;9.33;;;7.87;;
20621;SDS011;10470;42.670;23.354;2022-08-19T07:04:21;9.17;;;7.77;;
20621;SDS011;10470;42.670;23.354;2022-08-19T07:06:56;8.97;;;7.93;;
20621;SDS011;10470;42.670;23.354;2022-08-19T07:09:35;11.77;;;7.50;;
20621;SDS011;10470;42.670;23.354;2022-08-19T07:12:04;10.47;;;8.63;;
20621;SDS011;10470;42.670;23.354;2022-08-19T07:14:32;10.27;;;7.73;;
20621;SDS011;10470;42.670;23.354;2022-08-19T07:17:01;11.07;;;8.20;;
20621;SDS011;10470;42.670;23.354;2022-08-19T07:19:28;12.17;;;7.60;;
20621;SDS011;10470;42.670;23.354;2022-08-19T07:21:54;10.53;;;7.63;;
20621;SDS011;10470;42.670;23.354;2022-08-19T07:24:21;7.77;;;7.07;;
20621;SDS011;10470;42.670;23.354;2022-08-19T07:26:49;8.50;;;6.90;;
20621;SDS011;10470;42.670;23.354;2022-08-19T07:29:16;10.27;;;6.90;;
20621;SDS011;10470;42.670;23.354;2022-08-19T07:31:42;13.90;;;7.70;;
20621;SDS011;10470;42.670;23.354;2022-08-19T07:34:08;11.60;;;6.80;;
20621;SDS011;10470;42.670;23.354;2022-08-19T07:36:36;8.00;;;7.20;;
20621;SDS011;10470;42.670;23.354;2022-08-19T07:39:26;7.57;;;6.83;;
20621;SDS011;10470;42.670;23.354;2022-08-19T07:41:52;9.90;;;6.97;;
20621;SDS011;10470;42.670;23.354;2022-08-19T07:44:18;12.73;;;7.50;;
20621;SDS011;10470;42.670;23.354;2022-08-19T07:46:46;9.73;;;6.70;;
20621;SDS011;10470;42.670;23.354;2022-08-19T07:49:14;11.60;;;7.37;;
20621;SDS011;10470;42.670;23.354;2022-08-19T07:51:44;8.10;;;7.10;;
20621;SDS011;10470;42.670;23.354;2022-08-19T07:54:23;9.33;;;6.97;;
20621;SDS011;10470;42.670;23.354;2022-08-19T07:56:50;10.17;;;6.73;;
20621;SDS011;10470;42.670;23.354;2022-08-19T07:59:16;10.00;;;6.60;;
20621;SDS011;10470;42.670;23.354;2022-08-19T08:01:45;10.47;;;6.83;;
20621;SDS011;10470;42.670;23.354;2022-08-19T08:04:11;9.07;;;7.00;;
20621;SDS011;10470;42.670;23.354;2022-08-19T08:07:12;10.83;;;6.93;;
20621;SDS011;10470;42.670;23.354;2022-08-19T08:09:56;7.13;;;6.43;;
20621;SDS011;10470;42.670;23.354;2022-08-19T08:12:24;9.83;;;7.10;;
20621;SDS011;10470;42.670;23.354;2022-08-19T08:14:54;8.60;;;6.53;;
20621;SDS011;10470;42.670;23.354;2022-08-19T08:17:23;8.13;;;6.80;;
20621;SDS011;10470;42.670;23.354;2022-08-19T08:19:50;10.20;;;6.47;;
20621;SDS011;10470;42.670;23.354;2022-08-19T08:22:17;7.93;;;6.30;;
20621;SDS011;10470;42.670;23.354;2022-08-19T08:25:04;10.47;;;6.77;;
20621;SDS011;10470;42.670;23.354;2022-08-19T08:27:35;7.47;;;6.63;;
20621;SDS011;10470;42.670;23.354;2022-08-19T08:30:05;7.07;;;6.40;;
20621;SDS011;10470;42.670;23.354;2022-08-19T08:32:35;9.23;;;6.20;;
20621;SDS011;10470;42.670;23.354;2022-08-19T08:35:02;8.57;;;6.63;;
20621;SDS011;10470;42.670;23.354;2022-08-19T08:37:33;8.87;;;7.23;;
20621;SDS011;10470;42.670;23.354;2022-08-19T08:39:58;7.37;;;6.53;;
20621;SDS011;10470;42.670;23.354;2022-08-19T08:42:27;7.13;;;6.13;;
20621;SDS011;10470;42.670;23.354;2022-08-19T08:45:05;8.50;;;6.23;;
20621;SDS011;10470;42.670;23.354;2022-08-19T08:47:41;8.90;;;6.57;;
20621;SDS011;10470;42.670;23.354;2022-08-19T08:50:44;8.67;;;6.00;;
20621;SDS011;10470;42.670;23.354;2022-08-19T08:53:06;8.13;;;5.70;;
20621;SDS011;10470;42.670;23.354;2022-08-19T08:55:33;7.73;;;6.63;;
20621;SDS011;10470;42.670;23.354;2022-08-19T08:58:07;8.30;;;6.00;;
20621;SDS011;10470;42.670;23.354;2022-08-19T09:00:40;6.07;;;5.40;;
20621;SDS011;10470;42.670;23.354;2022-08-19T09:03:20;5.83;;;4.90;;
20621;SDS011;10470;42.670;23.354;2022-08-19T09:06:04;6.20;;;5.60;;
20621;SDS011;10470;42.670;23.354;2022-08-19T09:11:20;6.77;;;4.60;;
20621;SDS011;10470;42.670;23.354;2022-08-19T09:16:44;4.87;;;4.47;;
20621;SDS011;10470;42.670;23.354;2022-08-19T09:19:09;5.33;;;4.80;;
20621;SDS011;10470;42.670;23.354;2022-08-19T09:21:35;5.40;;;4.90;;
20621;SDS011;10470;42.670;23.354;2022-08-19T09:24:01;4.83;;;4.40;;
20621;SDS011;10470;42.670;23.354;2022-08-19T09:26:28;5.60;;;4.80;;
20621;SDS011;10470;42.670;23.354;2022-08-19T09:28:55;4.77;;;4.27;;
20621;SDS011;10470;42.670;23.354;2022-08-19T09:31:23;4.33;;;3.93;;
20621;SDS011;10470;42.670;23.354;2022-08-19T09:33:50;5.13;;;3.87;;
20621;SDS011;10470;42.670;23.354;2022-08-19T09:36:16;4.33;;;4.03;;
20621;SDS011;10470;42.670;23.354;2022-08-19T09:38:45;5.40;;;4.00;;
20621;SDS011;10470;42.670;23.354;2022-08-19T09:41:11;4.97;;;4.57;;
20621;SDS011;10470;42.670;23.354;2022-08-19T09:43:39;5.13;;;4.40;;
20621;SDS011;10470;42.670;23.354;2022-08-19T09:46:07;5.83;;;4.07;;
20621;SDS011;10470;42.670;23.354;2022-08-19T09:48:35;5.37;;;4.23;;
20621;SDS011;10470;42.670;23.354;2022-08-19T09:51:05;6.43;;;3.97;;
20621;SDS011;10470;42.670;23.354;2022-08-19T09:53:33;3.88;;;3.47;;
20621;SDS011;10470;42.670;23.354;2022-08-19T09:56:00;4.47;;;3.70;;
20621;SDS011;10470;42.670;23.354;2022-08-19T09:58:26;3.83;;;3.53;;
20621;SDS011;10470;42.670;23.354;2022-08-19T10:00:53;3.78;;;3.40;;
20621;SDS011;10470;42.670;23.354;2022-08-19T10:03:19;3.92;;;3.63;;
20621;SDS011;10470;42.670;23.354;2022-08-19T10:05:45;4.20;;;3.70;;
20621;SDS011;10470;42.670;23.354;2022-08-19T10:08:13;4.22;;;3.83;;
20621;SDS011;10470;42.670;23.354;2022-08-19T10:10:44;3.83;;;3.53;;
20621;SDS011;10470;42.670;23.354;2022-08-19T10:13:10;5.22;;;3.80;;
20621;SDS011;10470;42.670;23.354;2022-08-19T10:15:36;4.25;;;3.85;;
20621;SDS011;10470;42.670;23.354;2022-08-19T10:18:04;4.95;;;4.07;;
20621;SDS011;10470;42.670;23.354;2022-08-19T10:20:30;4.60;;;4.10;;
20621;SDS011;10470;42.670;23.354;2022-08-19T10:22:55;4.30;;;4.00;;
20621;SDS011;10470;42.670;23.354;2022-08-19T10:25:21;4.97;;;3.90;;
20621;SDS011;10470;42.670;23.354;2022-08-19T10:27:46;4.75;;;3.80;;
20621;SDS011;10470;42.670;23.354;2022-08-19T10:30:12;4.63;;;3.80;;
20621;SDS011;10470;42.670;23.354;2022-08-19T10:32:38;5.53;;;3.97;;
20621;SDS011;10470;42.670;23.354;2022-08-19T10:35:04;3.95;;;3.65;;
20621;SDS011;10470;42.670;23.354;2022-08-19T10:37:34;5.05;;;4.32;;
20621;SDS011;10470;42.670;23.354;2022-08-19T10:40:02;5.85;;;3.88;;
20621;SDS011;10470;42.670;23.354;2022-08-19T10:42:30;4.00;;;3.70;;
20621;SDS011;10470;42.670;23.354;2022-08-19T10:44:56;4.38;;;3.97;;
20621;SDS011;10470;42.670;23.354;2022-08-19T10:47:22;4.38;;;3.97;;
20621;SDS011;10470;42.670;23.354;2022-08-19T10:49:48;4.47;;;4.07;;
20621;SDS011;10470;42.670;23.354;2022-08-19T10:52:33;4.30;;;3.97;;
20621;SDS011;10470;42.670;23.354;2022-08-19T10:54:58;6.45;;;4.40;;
20621;SDS011;10470;42.670;23.354;2022-08-19T10:57:43;4.65;;;4.28;;
20621;SDS011;10470;42.670;23.354;2022-08-19T11:00:08;4.40;;;4.00;;
20621;SDS011;10470;42.670;23.354;2022-08-19T11:02:34;7.82;;;4.75;;
20621;SDS011;10470;42.670;23.354;2022-08-19T11:05:00;5.25;;;4.22;;
20621;SDS011;10470;42.670;23.354;2022-08-19T11:07:26;4.68;;;4.30;;
20621;SDS011;10470;42.670;23.354;2022-08-19T11:09:51;4.70;;;4.30;;
20621;SDS011;10470;42.670;23.354;2022-08-19T11:12:17;4.88;;;4.20;;
20621;SDS011;10470;42.670;23.354;2022-08-19T11:14:44;5.20;;;4.30;;
20621;SDS011;10470;42.670;23.354;2022-08-19T11:17:09;4.28;;;3.95;;
20621;SDS011;10470;42.670;23.354;2022-08-19T11:19:40;4.82;;;4.30;;
20621;SDS011;10470;42.670;23.354;2022-08-19T11:22:07;4.30;;;3.90;;
20621;SDS011;10470;42.670;23.354;2022-08-19T11:24:35;4.53;;;4.05;;
20621;SDS011;10470;42.670;23.354;2022-08-19T11:27:02;5.45;;;4.95;;
20621;SDS011;10470;42.670;23.354;2022-08-19T11:29:31;4.65;;;4.25;;
20621;SDS011;10470;42.670;23.354;2022-08-19T11:31:58;4.18;;;3.88;;
20621;SDS011;10470;42.670;23.354;2022-08-19T11:34:26;4.88;;;4.20;;
20621;SDS011;10470;42.670;23.354;2022-08-19T11:36:53;4.63;;;4.03;;
20621;SDS011;10470;42.670;23.354;2022-08-19T11:39:23;4.50;;;4.10;;
20621;SDS011;10470;42.670;23.354;2022-08-19T11:41:50;5.35;;;3.97;;
20621;SDS011;10470;42.670;23.354;2022-08-19T11:44:16;5.90;;;4.20;;
20621;SDS011;10470;42.670;23.354;2022-08-19T11:46:42;7.63;;;6.20;;
20621;SDS011;10470;42.670;23.354;2022-08-19T11:49:13;5.90;;;5.30;;
20621;SDS011;10470;42.670;23.354;2022-08-19T11:51:40;4.82;;;4.43;;
20621;SDS011;10470;42.670;23.354;2022-08-19T11:54:08;5.13;;;4.55;;
20621;SDS011;10470;42.670;23.354;2022-08-19T11:56:36;5.00;;;4.60;;
20621;SDS011;10470;42.670;23.354;2022-08-19T11:59:02;4.85;;;4.45;;
20621;SDS011;10470;42.670;23.354;2022-08-19T12:01:28;4.75;;;4.22;;
20621;SDS011;10470;42.670;23.354;2022-08-19T12:03:54;4.70;;;4.30;;
20621;SDS011;10470;42.670;23.354;2022-08-19T12:06:25;5.18;;;4.50;;
20621;SDS011;10470;42.670;23.354;2022-08-19T12:08:57;5.03;;;4.63;;
20621;SDS011;10470;42.670;23.354;2022-08-19T12:11:24;4.68;;;4.38;;
20621;SDS011;10470;42.670;23.354;2022-08-19T12:13:50;5.20;;;4.70;;
20621;SDS011;10470;42.670;23.354;2022-08-19T12:16:18;4.70;;;4.40;;
20621;SDS011;10470;42.670;23.354;2022-08-19T12:18:49;4.90;;;4.50;;
20621;SDS011;10470;42.670;23.354;2022-08-19T12:21:16;5.18;;;4.63;;
20621;SDS011;10470;42.670;23.354;2022-08-19T12:23:48;4.45;;;4.15;;
20621;SDS011;10470;42.670;23.354;2022-08-19T12:26:15;4.80;;;4.40;;
20621;SDS011;10470;42.670;23.354;2022-08-19T12:28:41;5.32;;;4.90;;
20621;SDS011;10470;42.670;23.354;2022-08-19T12:31:07;5.13;;;4.72;;
20621;SDS011;10470;42.670;23.354;2022-08-19T12:33:33;4.82;;;4.53;;
20621;SDS011;10470;42.670;23.354;2022-08-19T12:36:00;4.80;;;4.30;;
20621;SDS011;10470;42.670;23.354;2022-08-19T12:38:28;5.47;;;5.07;;
20621;SDS011;10470;42.670;23.354;2022-08-19T12:40:54;5.25;;;4.85;;
20621;SDS011;10470;42.670;23.354;2022-08-19T12:43:19;5.18;;;4.78;;
20621;SDS011;10470;42.670;23.354;2022-08-19T12:45:45;5.38;;;4.95;;
20621;SDS011;10470;42.670;23.354;2022-08-19T12:48:11;5.28;;;4.88;;
20621;SDS011;10470;42.670;23.354;2022-08-19T12:50:41;5.32;;;4.90;;
20621;SDS011;10470;42.670;23.354;2022-08-19T12:53:07;5.78;;;5.00;;
20621;SDS011;10470;42.670;23.354;2022-08-19T12:55:33;6.13;;;4.75;;
20621;SDS011;10470;42.670;23.354;2022-08-19T12:57:59;5.40;;;5.00;;
20621;SDS011;10470;42.670;23.354;2022-08-19T13:00:26;5.20;;;4.75;;
20621;SDS011;10470;42.670;23.354;2022-08-19T13:02:52;5.50;;;4.85;;
20621;SDS011;10470;42.670;23.354;2022-08-19T13:05:22;6.72;;;5.22;;
20621;SDS011;10470;42.670;23.354;2022-08-19T13:07:50;5.95;;;5.38;;
20621;SDS011;10470;42.670;23.354;2022-08-19T13:10:19;5.95;;;5.32;;
20621;SDS011;10470;42.670;23.354;2022-08-19T13:12:46;5.43;;;4.80;;
20621;SDS011;10470;42.670;23.354;2022-08-19T13:15:14;5.63;;;5.15;;
20621;SDS011;10470;42.670;23.354;2022-08-19T13:17:45;5.07;;;4.68;;
20621;SDS011;10470;42.670;23.354;2022-08-19T13:20:16;5.22;;;4.82;;
20621;SDS011;10470;42.670;23.354;2022-08-19T13:22:44;6.13;;;5.00;;
20621;SDS011;10470;42.670;23.354;2022-08-19T13:25:10;5.65;;;4.70;;
20621;SDS011;10470;42.670;23.354;2022-08-19T13:27:39;5.22;;;4.82;;
20621;SDS011;10470;42.670;23.354;2022-08-19T13:30:06;5.07;;;4.68;;
20621;SDS011;10470;42.670;23.354;2022-08-19T13:32:52;6.93;;;5.03;;
20621;SDS011;10470;42.670;23.354;2022-08-19T13:35:44;4.97;;;4.68;;
20621;SDS011;10470;42.670;23.354;2022-08-19T13:38:16;5.57;;;5.15;;
20621;SDS011;10470;42.670;23.354;2022-08-19T13:40:45;5.18;;;4.70;;
20621;SDS011;10470;42.670;23.354;2022-08-19T13:43:11;4.90;;;4.47;;
20621;SDS011;10470;42.670;23.354;2022-08-19T13:45:37;5.90;;;5.40;;
20621;SDS011;10470;42.670;23.354;2022-08-19T13:48:03;5.22;;;4.82;;
20621;SDS011;10470;42.670;23.354;2022-08-19T13:50:34;5.90;;;4.97;;
20621;SDS011;10470;42.670;23.354;2022-08-19T13:53:09;5.38;;;4.97;;
20621;SDS011;10470;42.670;23.354;2022-08-19T13:55:40;5.60;;;5.20;;
20621;SDS011;10470;42.670;23.354;2022-08-19T13:58:07;6.07;;;5.30;;
20621;SDS011;10470;42.670;23.354;2022-08-19T14:00:34;6.90;;;5.32;;
20621;SDS011;10470;42.670;23.354;2022-08-19T14:03:02;5.30;;;4.90;;
20621;SDS011;10470;42.670;23.354;2022-08-19T14:05:29;5.90;;;5.40;;
20621;SDS011;10470;42.670;23.354;2022-08-19T14:07:55;5.63;;;5.22;;
20621;SDS011;10470;42.670;23.354;2022-08-19T14:10:21;6.00;;;5.43;;
20621;SDS011;10470;42.670;23.354;2022-08-19T14:12:48;5.70;;;5.30;;
20621;SDS011;10470;42.670;23.354;2022-08-19T14:15:17;5.82;;;5.32;;
20621;SDS011;10470;42.670;23.354;2022-08-19T14:17:43;5.57;;;5.15;;
20621;SDS011;10470;42.670;23.354;2022-08-19T14:20:11;5.40;;;5.00;;
20621;SDS011;10470;42.670;23.354;2022-08-19T14:22:39;7.25;;;5.53;;
20621;SDS011;10470;42.670;23.354;2022-08-19T14:25:10;6.43;;;5.53;;
20621;SDS011;10470;42.670;23.354;2022-08-19T14:27:38;5.95;;;5.53;;
20621;SDS011;10470;42.670;23.354;2022-08-19T14:30:06;5.82;;;4.97;;
20621;SDS011;10470;42.670;23.354;2022-08-19T14:32:33;5.50;;;5.10;;
20621;SDS011;10470;42.670;23.354;2022-08-19T14:34:59;6.10;;;5.60;;
20621;SDS011;10470;42.670;23.354;2022-08-19T14:37:26;6.03;;;5.28;;
20621;SDS011;10470;42.670;23.354;2022-08-19T14:39:51;6.10;;;5.55;;
20621;SDS011;10470;42.670;23.354;2022-08-19T14:42:17;5.95;;;5.43;;
20621;SDS011;10470;42.670;23.354;2022-08-19T14:44:42;7.57;;;6.78;;
20621;SDS011;10470;42.670;23.354;2022-08-19T14:47:08;9.68;;;8.52;;